KLFI/LFI METAR and TAF weather

Enter ICAO airport designator
Station Type Date Time Source
KLFI METAR 2019/04/18 13:59 UTC NOAA

KLFI 181359Z AUTO 21008KT 10SM FEW200 21/14 A3005 RMK AO2 RAB56E59 SLP182 $


Station Type Date Time Source
KLFI Decoded METAR 2019/04/18 13:59 UTC NOAA

Langley Air Force Base, VA, United States (KLFI) 37-05N 076-21W 6M
Apr 18, 2019 - 09:59 AM EDT / 2019.04.18 1359 UTC
Wind: from the SSW (210 degrees) at 9 MPH (8 KT):0
Visibility: 10 mile(s):0
Sky conditions: mostly clear
Temperature: 69 F (21 C)
Dew Point: 57 F (14 C)
Relative Humidity: 64%
Pressure (altimeter): 30.05 in. Hg (1017 hPa)
ob: KLFI 181359Z AUTO 21008KT 10SM FEW200 21/14 A3005 RMK AO2 RAB56E59 SLP182
cycle: 14

Station Type Date Time Source
KLFI TAF 2019/04/18 09:07 UTC NOAA

TAF KLFI 180900Z 1809/1915 VRB06KT 9999 SCT200 QNH3000INS
BECMG 1816/1817 18010KT 9999 SCT180 QNH2992INS
BECMG 1901/1902 17012G18KT 9999 BKN030 QNH2980INS TX27/1819Z TN13/1809Z

Example: see airport list